sensor_id;sensor_type;location;lat;lon;timestamp;temperature;humidity
67196;DHT22;54122;53.538;49.366;2023-04-07T00:00:58;3.30;65.40
67196;DHT22;54122;53.538;49.366;2023-04-07T00:03:25;3.30;65.40
67196;DHT22;54122;53.538;49.366;2023-04-07T00:05:51;3.30;65.20
67196;DHT22;54122;53.538;49.366;2023-04-07T00:08:17;3.30;65.30
67196;DHT22;54122;53.538;49.366;2023-04-07T00:10:43;3.20;65.30
67196;DHT22;54122;53.538;49.366;2023-04-07T00:13:09;3.20;65.30
67196;DHT22;54122;53.538;49.366;2023-04-07T00:15:35;3.10;65.40
67196;DHT22;54122;53.538;49.366;2023-04-07T00:18:01;3.10;65.60
67196;DHT22;54122;53.538;49.366;2023-04-07T00:20:27;3.10;65.60
67196;DHT22;54122;53.538;49.366;2023-04-07T00:22:54;3.00;65.50
67196;DHT22;54122;53.538;49.366;2023-04-07T00:25:20;3.00;65.60
67196;DHT22;54122;53.538;49.366;2023-04-07T00:27:46;2.90;65.70
67196;DHT22;54122;53.538;49.366;2023-04-07T00:30:12;2.90;65.80
67196;DHT22;54122;53.538;49.366;2023-04-07T00:32:40;2.90;65.80
67196;DHT22;54122;53.538;49.366;2023-04-07T00:35:06;2.80;65.80
67196;DHT22;54122;53.538;49.366;2023-04-07T00:37:32;2.70;65.90
67196;DHT22;54122;53.538;49.366;2023-04-07T00:39:58;2.80;66.10
67196;DHT22;54122;53.538;49.366;2023-04-07T00:42:25;2.70;66.00
67196;DHT22;54122;53.538;49.366;2023-04-07T00:44:51;2.70;66.00
67196;DHT22;54122;53.538;49.366;2023-04-07T00:47:17;2.60;66.20
67196;DHT22;54122;53.538;49.366;2023-04-07T00:49:44;2.50;66.30
67196;DHT22;54122;53.538;49.366;2023-04-07T00:52:11;2.50;66.30
67196;DHT22;54122;53.538;49.366;2023-04-07T00:54:38;2.50;66.40
67196;DHT22;54122;53.538;49.366;2023-04-07T00:57:07;2.50;66.40
67196;DHT22;54122;53.538;49.366;2023-04-07T00:59:33;2.50;66.50
67196;DHT22;54122;53.538;49.366;2023-04-07T01:02:33;2.50;66.60
67196;DHT22;54122;53.538;49.366;2023-04-07T01:07:33;2.50;66.40
67196;DHT22;54122;53.538;49.366;2023-04-07T01:10:05;2.50;66.30
67196;DHT22;54122;53.538;49.366;2023-04-07T01:12:46;2.50;66.30
67196;DHT22;54122;53.538;49.366;2023-04-07T01:15:20;2.40;66.30
67196;DHT22;54122;53.538;49.366;2023-04-07T01:17:58;2.40;66.40
67196;DHT22;54122;53.538;49.366;2023-04-07T01:20:26;2.30;66.40
67196;DHT22;54122;53.538;49.366;2023-04-07T01:22:57;2.30;66.60
67196;DHT22;54122;53.538;49.366;2023-04-07T01:26:15;2.30;66.70
67196;DHT22;54122;53.538;49.366;2023-04-07T01:31:28;2.10;67.00
67196;DHT22;54122;53.538;49.366;2023-04-07T01:33:57;2.10;67.30
67196;DHT22;54122;53.538;49.366;2023-04-07T01:36:25;2.00;67.50
67196;DHT22;54122;53.538;49.366;2023-04-07T01:38:54;2.00;67.60
67196;DHT22;54122;53.538;49.366;2023-04-07T01:41:22;2.00;67.70
67196;DHT22;54122;53.538;49.366;2023-04-07T01:43:49;2.00;67.80
67196;DHT22;54122;53.538;49.366;2023-04-07T01:46:16;1.90;67.70
67196;DHT22;54122;53.538;49.366;2023-04-07T01:48:42;1.80;67.90
67196;DHT22;54122;53.538;49.366;2023-04-07T01:51:09;1.80;68.10
67196;DHT22;54122;53.538;49.366;2023-04-07T01:53:37;1.80;68.40
67196;DHT22;54122;53.538;49.366;2023-04-07T01:56:04;1.80;68.60
67196;DHT22;54122;53.538;49.366;2023-04-07T01:58:31;1.80;68.50
67196;DHT22;54122;53.538;49.366;2023-04-07T02:00:57;1.70;68.50
67196;DHT22;54122;53.538;49.366;2023-04-07T02:06:14;1.80;68.50
67196;DHT22;54122;53.538;49.366;2023-04-07T02:08:49;1.80;68.50
67196;DHT22;54122;53.538;49.366;2023-04-07T02:11:19;1.80;68.30
67196;DHT22;54122;53.538;49.366;2023-04-07T02:13:47;1.90;68.10
67196;DHT22;54122;53.538;49.366;2023-04-07T02:16:14;1.90;68.20
67196;DHT22;54122;53.538;49.366;2023-04-07T02:18:42;1.90;68.10
67196;DHT22;54122;53.538;49.366;2023-04-07T02:21:11;1.90;67.90
67196;DHT22;54122;53.538;49.366;2023-04-07T02:23:37;1.90;67.90
67196;DHT22;54122;53.538;49.366;2023-04-07T02:26:04;2.00;67.80
67196;DHT22;54122;53.538;49.366;2023-04-07T02:28:30;2.00;67.80
67196;DHT22;54122;53.538;49.366;2023-04-07T02:30:56;2.00;67.80
67196;DHT22;54122;53.538;49.366;2023-04-07T02:33:22;2.00;67.70
67196;DHT22;54122;53.538;49.366;2023-04-07T02:35:48;2.00;67.60
67196;DHT22;54122;53.538;49.366;2023-04-07T02:38:14;2.00;67.60
67196;DHT22;54122;53.538;49.366;2023-04-07T02:40:40;2.10;67.70
67196;DHT22;54122;53.538;49.366;2023-04-07T02:43:06;2.10;67.50
67196;DHT22;54122;53.538;49.366;2023-04-07T02:45:32;2.10;67.30
67196;DHT22;54122;53.538;49.366;2023-04-07T02:47:59;2.20;67.40
67196;DHT22;54122;53.538;49.366;2023-04-07T02:50:25;2.30;67.20
67196;DHT22;54122;53.538;49.366;2023-04-07T02:52:51;2.60;66.40
67196;DHT22;54122;53.538;49.366;2023-04-07T02:55:17;2.80;65.60
67196;DHT22;54122;53.538;49.366;2023-04-07T02:57:44;2.90;65.00
67196;DHT22;54122;53.538;49.366;2023-04-07T03:00:10;3.20;64.50
67196;DHT22;54122;53.538;49.366;2023-04-07T03:02:37;3.50;64.00
67196;DHT22;54122;53.538;49.366;2023-04-07T03:05:03;4.00;62.90
67196;DHT22;54122;53.538;49.366;2023-04-07T03:07:29;4.60;61.40
67196;DHT22;54122;53.538;49.366;2023-04-07T03:09:56;5.00;59.50
67196;DHT22;54122;53.538;49.366;2023-04-07T03:12:22;5.60;58.20
67196;DHT22;54122;53.538;49.366;2023-04-07T03:14:49;6.70;55.60
67196;DHT22;54122;53.538;49.366;2023-04-07T03:17:15;7.80;52.40
67196;DHT22;54122;53.538;49.366;2023-04-07T03:19:41;8.20;49.20
67196;DHT22;54122;53.538;49.366;2023-04-07T03:22:07;8.40;48.40
67196;DHT22;54122;53.538;49.366;2023-04-07T03:24:33;9.00;47.80
67196;DHT22;54122;53.538;49.366;2023-04-07T03:26:59;9.50;46.10
67196;DHT22;54122;53.538;49.366;2023-04-07T03:29:27;10.00;44.70
67196;DHT22;54122;53.538;49.366;2023-04-07T03:31:53;10.70;43.90
67196;DHT22;54122;53.538;49.366;2023-04-07T03:34:19;10.90;42.10
67196;DHT22;54122;53.538;49.366;2023-04-07T03:36:45;11.10;40.90
67196;DHT22;54122;53.538;49.366;2023-04-07T03:39:11;11.10;40.30
67196;DHT22;54122;53.538;49.366;2023-04-07T03:41:38;11.00;39.60
67196;DHT22;54122;53.538;49.366;2023-04-07T03:44:04;10.90;39.80
67196;DHT22;54122;53.538;49.366;2023-04-07T03:46:30;11.10;39.70
67196;DHT22;54122;53.538;49.366;2023-04-07T03:48:56;11.50;39.50
67196;DHT22;54122;53.538;49.366;2023-04-07T03:51:22;11.90;38.40
67196;DHT22;54122;53.538;49.366;2023-04-07T03:53:48;12.20;37.60
67196;DHT22;54122;53.538;49.366;2023-04-07T03:56:15;12.40;36.90
67196;DHT22;54122;53.538;49.366;2023-04-07T03:58:42;12.30;36.40
67196;DHT22;54122;53.538;49.366;2023-04-07T04:01:09;12.40;36.10
67196;DHT22;54122;53.538;49.366;2023-04-07T04:03:35;12.50;36.00
67196;DHT22;54122;53.538;49.366;2023-04-07T04:06:01;12.60;35.40
67196;DHT22;54122;53.538;49.366;2023-04-07T04:08:28;12.70;35.70
67196;DHT22;54122;53.538;49.366;2023-04-07T04:10:54;12.80;34.70
67196;DHT22;54122;53.538;49.366;2023-04-07T04:16:05;12.80;34.00
67196;DHT22;54122;53.538;49.366;2023-04-07T04:21:16;13.10;34.50
67196;DHT22;54122;53.538;49.366;2023-04-07T04:23:42;13.60;33.30
67196;DHT22;54122;53.538;49.366;2023-04-07T04:29:30;14.20;31.80
67196;DHT22;54122;53.538;49.366;2023-04-07T04:31:57;14.00;31.80
67196;DHT22;54122;53.538;49.366;2023-04-07T04:34:23;14.00;32.30
67196;DHT22;54122;53.538;49.366;2023-04-07T04:36:49;14.50;31.70
67196;DHT22;54122;53.538;49.366;2023-04-07T04:39:15;14.90;31.40
67196;DHT22;54122;53.538;49.366;2023-04-07T04:42:00;15.10;30.50
67196;DHT22;54122;53.538;49.366;2023-04-07T04:47:11;15.00;30.20
67196;DHT22;54122;53.538;49.366;2023-04-07T04:49:38;15.20;30.20
67196;DHT22;54122;53.538;49.366;2023-04-07T04:52:04;15.10;30.00
67196;DHT22;54122;53.538;49.366;2023-04-07T04:57:16;15.40;29.80
67196;DHT22;54122;53.538;49.366;2023-04-07T04:59:42;15.80;29.70
67196;DHT22;54122;53.538;49.366;2023-04-07T05:02:08;16.00;29.00
67196;DHT22;54122;53.538;49.366;2023-04-07T05:04:34;16.00;28.90
67196;DHT22;54122;53.538;49.366;2023-04-07T05:07:01;16.10;29.00
67196;DHT22;54122;53.538;49.366;2023-04-07T05:09:46;16.20;29.00
67196;DHT22;54122;53.538;49.366;2023-04-07T05:14:57;16.70;28.60
67196;DHT22;54122;53.538;49.366;2023-04-07T05:17:23;16.70;28.20
67196;DHT22;54122;53.538;49.366;2023-04-07T05:19:49;16.60;28.40
67196;DHT22;54122;53.538;49.366;2023-04-07T05:22:15;16.80;28.30
67196;DHT22;54122;53.538;49.366;2023-04-07T05:24:41;16.90;27.90
67196;DHT22;54122;53.538;49.366;2023-04-07T05:27:08;17.00;27.70
67196;DHT22;54122;53.538;49.366;2023-04-07T05:32:18;17.00;27.90
67196;DHT22;54122;53.538;49.366;2023-04-07T05:34:45;16.80;28.00
67196;DHT22;54122;53.538;49.366;2023-04-07T05:37:11;16.50;28.10
67196;DHT22;54122;53.538;49.366;2023-04-07T05:39:37;16.50;28.40
67196;DHT22;54122;53.538;49.366;2023-04-07T05:42:03;16.70;28.30
67196;DHT22;54122;53.538;49.366;2023-04-07T05:44:29;16.80;28.00
67196;DHT22;54122;53.538;49.366;2023-04-07T05:46:55;16.90;28.30
67196;DHT22;54122;53.538;49.366;2023-04-07T05:49:21;17.10;27.70
67196;DHT22;54122;53.538;49.366;2023-04-07T05:51:48;16.80;28.00
67196;DHT22;54122;53.538;49.366;2023-04-07T05:56:58;16.90;28.30
67196;DHT22;54122;53.538;49.366;2023-04-07T05:59:25;17.20;28.30
67196;DHT22;54122;53.538;49.366;2023-04-07T06:01:51;17.30;27.80
67196;DHT22;54122;53.538;49.366;2023-04-07T06:04:17;17.30;27.70
67196;DHT22;54122;53.538;49.366;2023-04-07T06:06:43;17.50;27.60
67196;DHT22;54122;53.538;49.366;2023-04-07T06:09:09;17.30;27.50
67196;DHT22;54122;53.538;49.366;2023-04-07T06:11:36;17.30;27.50
67196;DHT22;54122;53.538;49.366;2023-04-07T06:16:46;17.30;27.50
67196;DHT22;54122;53.538;49.366;2023-04-07T06:19:12;17.20;27.50
67196;DHT22;54122;53.538;49.366;2023-04-07T06:21:39;17.10;27.70
67196;DHT22;54122;53.538;49.366;2023-04-07T06:24:05;17.30;27.80
67196;DHT22;54122;53.538;49.366;2023-04-07T06:26:51;17.30;27.50
67196;DHT22;54122;53.538;49.366;2023-04-07T06:29:17;17.40;27.40
67196;DHT22;54122;53.538;49.366;2023-04-07T06:31:44;17.50;27.40
67196;DHT22;54122;53.538;49.366;2023-04-07T06:34:10;17.60;27.50
67196;DHT22;54122;53.538;49.366;2023-04-07T06:36:36;17.50;27.40
67196;DHT22;54122;53.538;49.366;2023-04-07T06:39:03;17.90;27.40
67196;DHT22;54122;53.538;49.366;2023-04-07T06:44:13;18.10;26.70
67196;DHT22;54122;53.538;49.366;2023-04-07T06:46:40;17.60;26.80
67196;DHT22;54122;53.538;49.366;2023-04-07T06:49:07;17.40;27.60
67196;DHT22;54122;53.538;49.366;2023-04-07T06:51:33;17.50;27.60
67196;DHT22;54122;53.538;49.366;2023-04-07T06:57:02;17.90;27.20
67196;DHT22;54122;53.538;49.366;2023-04-07T07:02:13;17.50;27.40
67196;DHT22;54122;53.538;49.366;2023-04-07T07:04:40;17.50;27.60
67196;DHT22;54122;53.538;49.366;2023-04-07T07:07:06;17.60;27.40
67196;DHT22;54122;53.538;49.366;2023-04-07T07:09:32;17.70;27.50
67196;DHT22;54122;53.538;49.366;2023-04-07T07:11:58;17.70;27.50
67196;DHT22;54122;53.538;49.366;2023-04-07T07:14:27;17.80;27.80
67196;DHT22;54122;53.538;49.366;2023-04-07T07:16:53;18.00;27.60
67196;DHT22;54122;53.538;49.366;2023-04-07T07:19:19;18.10;27.20
67196;DHT22;54122;53.538;49.366;2023-04-07T07:21:45;18.00;27.20
67196;DHT22;54122;53.538;49.366;2023-04-07T07:24:30;17.70;27.60
67196;DHT22;54122;53.538;49.366;2023-04-07T07:26:59;17.70;27.80
67196;DHT22;54122;53.538;49.366;2023-04-07T07:29:27;18.00;27.40
67196;DHT22;54122;53.538;49.366;2023-04-07T07:31:53;18.00;27.40
67196;DHT22;54122;53.538;49.366;2023-04-07T07:34:19;18.10;27.70
67196;DHT22;54122;53.538;49.366;2023-04-07T07:39:30;17.80;28.20
67196;DHT22;54122;53.538;49.366;2023-04-07T07:41:56;17.70;27.90
67196;DHT22;54122;53.538;49.366;2023-04-07T07:44:22;17.30;28.70
67196;DHT22;54122;53.538;49.366;2023-04-07T07:47:07;17.60;28.30
67196;DHT22;54122;53.538;49.366;2023-04-07T07:49:34;17.50;28.60
67196;DHT22;54122;53.538;49.366;2023-04-07T07:52:19;17.60;28.40
67196;DHT22;54122;53.538;49.366;2023-04-07T07:55:06;17.60;28.50
67196;DHT22;54122;53.538;49.366;2023-04-07T07:57:32;17.90;28.20
67196;DHT22;54122;53.538;49.366;2023-04-07T08:00:17;17.80;28.10
67196;DHT22;54122;53.538;49.366;2023-04-07T08:02:43;17.80;28.50
67196;DHT22;54122;53.538;49.366;2023-04-07T08:07:54;17.50;29.00
67196;DHT22;54122;53.538;49.366;2023-04-07T08:10:21;17.50;29.00
67196;DHT22;54122;53.538;49.366;2023-04-07T08:12:48;17.50;29.10
67196;DHT22;54122;53.538;49.366;2023-04-07T08:15:14;17.50;29.30
67196;DHT22;54122;53.538;49.366;2023-04-07T08:17:40;18.00;29.10
67196;DHT22;54122;53.538;49.366;2023-04-07T08:20:25;18.30;28.80
67196;DHT22;54122;53.538;49.366;2023-04-07T08:22:52;18.80;28.00
67196;DHT22;54122;53.538;49.366;2023-04-07T08:28:05;18.90;27.60
67196;DHT22;54122;53.538;49.366;2023-04-07T08:30:31;18.90;27.80
67196;DHT22;54122;53.538;49.366;2023-04-07T08:33:04;18.90;27.80
67196;DHT22;54122;53.538;49.366;2023-04-07T08:35:30;18.80;28.10
67196;DHT22;54122;53.538;49.366;2023-04-07T08:37:57;18.90;29.00
67196;DHT22;54122;53.538;49.366;2023-04-07T08:40:23;19.20;28.10
67196;DHT22;54122;53.538;49.366;2023-04-07T08:42:50;19.40;27.50
67196;DHT22;54122;53.538;49.366;2023-04-07T08:45:17;18.80;27.90
67196;DHT22;54122;53.538;49.366;2023-04-07T08:47:45;18.50;28.60
67196;DHT22;54122;53.538;49.366;2023-04-07T08:50:14;18.60;28.70
67196;DHT22;54122;53.538;49.366;2023-04-07T08:52:51;18.70;28.50
67196;DHT22;54122;53.538;49.366;2023-04-07T08:55:19;18.10;28.90
67196;DHT22;54122;53.538;49.366;2023-04-07T08:58:03;17.60;29.80
67196;DHT22;54122;53.538;49.366;2023-04-07T09:00:31;16.70;30.80
67196;DHT22;54122;53.538;49.366;2023-04-07T09:02:59;16.30;32.30
67196;DHT22;54122;53.538;49.366;2023-04-07T09:05:26;16.30;32.30
67196;DHT22;54122;53.538;49.366;2023-04-07T09:08:11;15.90;33.40
67196;DHT22;54122;53.538;49.366;2023-04-07T09:10:37;16.00;33.10
67196;DHT22;54122;53.538;49.366;2023-04-07T09:16:07;16.40;33.00
67196;DHT22;54122;53.538;49.366;2023-04-07T09:21:18;16.80;31.80
67196;DHT22;54122;53.538;49.366;2023-04-07T09:23:45;16.90;31.80
67196;DHT22;54122;53.538;49.366;2023-04-07T09:26:24;17.10;31.70
67196;DHT22;54122;53.538;49.366;2023-04-07T09:31:48;18.00;29.80
67196;DHT22;54122;53.538;49.366;2023-04-07T09:34:26;17.00;30.80
67196;DHT22;54122;53.538;49.366;2023-04-07T09:37:20;16.10;34.00
67196;DHT22;54122;53.538;49.366;2023-04-07T09:39:51;15.20;34.90
67196;DHT22;54122;53.538;49.366;2023-04-07T09:42:44;14.60;36.10
67196;DHT22;54122;53.538;49.366;2023-04-07T09:45:11;14.60;37.50
67196;DHT22;54122;53.538;49.366;2023-04-07T09:47:37;15.00;37.20
67196;DHT22;54122;53.538;49.366;2023-04-07T09:50:04;15.40;36.40
67196;DHT22;54122;53.538;49.366;2023-04-07T09:52:50;15.40;35.50
67196;DHT22;54122;53.538;49.366;2023-04-07T09:58:07;14.90;36.60
67196;DHT22;54122;53.538;49.366;2023-04-07T10:00:55;14.90;36.90
67196;DHT22;54122;53.538;49.366;2023-04-07T10:06:26;14.40;37.60
67196;DHT22;54122;53.538;49.366;2023-04-07T10:09:11;14.40;38.10
67196;DHT22;54122;53.538;49.366;2023-04-07T10:11:37;14.70;38.10
67196;DHT22;54122;53.538;49.366;2023-04-07T10:14:03;14.90;37.20
67196;DHT22;54122;53.538;49.366;2023-04-07T10:16:30;15.10;37.60
67196;DHT22;54122;53.538;49.366;2023-04-07T10:18:57;15.50;36.40
67196;DHT22;54122;53.538;49.366;2023-04-07T10:21:42;15.50;35.60
67196;DHT22;54122;53.538;49.366;2023-04-07T10:27:01;15.00;36.90
67196;DHT22;54122;53.538;49.366;2023-04-07T10:29:38;15.20;37.20
67196;DHT22;54122;53.538;49.366;2023-04-07T10:32:24;15.30;36.50
67196;DHT22;54122;53.538;49.366;2023-04-07T10:37:20;15.50;35.80
67196;DHT22;54122;53.538;49.366;2023-04-07T10:39:48;15.60;35.70
67196;DHT22;54122;53.538;49.366;2023-04-07T10:45:04;15.40;35.60
67196;DHT22;54122;53.538;49.366;2023-04-07T10:47:31;15.30;36.10
67196;DHT22;54122;53.538;49.366;2023-04-07T10:50:22;15.00;36.50
67196;DHT22;54122;53.538;49.366;2023-04-07T10:53:13;14.80;37.00
67196;DHT22;54122;53.538;49.366;2023-04-07T10:55:41;14.70;37.40
67196;DHT22;54122;53.538;49.366;2023-04-07T10:58:24;14.80;37.60
67196;DHT22;54122;53.538;49.366;2023-04-07T11:03:31;14.50;37.20
67196;DHT22;54122;53.538;49.366;2023-04-07T11:06:02;14.60;37.50
67196;DHT22;54122;53.538;49.366;2023-04-07T11:08:47;14.70;37.40
67196;DHT22;54122;53.538;49.366;2023-04-07T11:11:15;15.10;36.90
67196;DHT22;54122;53.538;49.366;2023-04-07T11:16:08;15.30;36.20
67196;DHT22;54122;53.538;49.366;2023-04-07T11:18:35;15.10;36.70
67196;DHT22;54122;53.538;49.366;2023-04-07T11:21:02;14.80;36.70
67196;DHT22;54122;53.538;49.366;2023-04-07T11:23:37;14.70;37.40
67196;DHT22;54122;53.538;49.366;2023-04-07T11:34:31;15.00;36.30
67196;DHT22;54122;53.538;49.366;2023-04-07T11:37:43;15.10;36.60
67196;DHT22;54122;53.538;49.366;2023-04-07T11:39:56;15.00;36.80
67196;DHT22;54122;53.538;49.366;2023-04-07T11:42:41;14.80;37.10
67196;DHT22;54122;53.538;49.366;2023-04-07T11:51:33;14.60;37.40
67196;DHT22;54122;53.538;49.366;2023-04-07T11:53:59;14.80;37.10
67196;DHT22;54122;53.538;49.366;2023-04-07T11:56:26;14.90;36.80
67196;DHT22;54122;53.538;49.366;2023-04-07T11:58:53;14.80;36.20
67196;DHT22;54122;53.538;49.366;2023-04-07T12:01:21;14.60;36.50
67196;DHT22;54122;53.538;49.366;2023-04-07T12:04:02;14.50;36.90
67196;DHT22;54122;53.538;49.366;2023-04-07T12:06:29;14.30;36.70
67196;DHT22;54122;53.538;49.366;2023-04-07T12:09:05;14.10;37.00
67196;DHT22;54122;53.538;49.366;2023-04-07T12:14:36;13.90;38.10
67196;DHT22;54122;53.538;49.366;2023-04-07T12:17:02;14.10;38.10
67196;DHT22;54122;53.538;49.366;2023-04-07T12:19:30;14.20;38.20
67196;DHT22;54122;53.538;49.366;2023-04-07T12:22:15;14.20;37.10
67196;DHT22;54122;53.538;49.366;2023-04-07T12:25:00;14.00;37.00
67196;DHT22;54122;53.538;49.366;2023-04-07T12:27:27;13.90;37.80
67196;DHT22;54122;53.538;49.366;2023-04-07T12:30:12;13.90;37.90
67196;DHT22;54122;53.538;49.366;2023-04-07T12:32:38;14.30;38.10
67196;DHT22;54122;53.538;49.366;2023-04-07T12:37:49;14.80;37.10
67196;DHT22;54122;53.538;49.366;2023-04-07T12:40:17;14.80;36.70
67196;DHT22;54122;53.538;49.366;2023-04-07T12:42:44;14.50;36.80
67196;DHT22;54122;53.538;49.366;2023-04-07T12:45:10;14.20;37.20
67196;DHT22;54122;53.538;49.366;2023-04-07T12:47:36;13.80;37.70
67196;DHT22;54122;53.538;49.366;2023-04-07T12:50:02;13.50;38.50
67196;DHT22;54122;53.538;49.366;2023-04-07T12:52:47;13.40;39.10
67196;DHT22;54122;53.538;49.366;2023-04-07T12:55:32;13.50;39.10
67196;DHT22;54122;53.538;49.366;2023-04-07T12:58:00;13.90;39.10
67196;DHT22;54122;53.538;49.366;2023-04-07T13:00:26;14.10;37.80
67196;DHT22;54122;53.538;49.366;2023-04-07T13:02:52;14.10;36.90
67196;DHT22;54122;53.538;49.366;2023-04-07T13:05:19;13.80;37.00
67196;DHT22;54122;53.538;49.366;2023-04-07T13:07:45;13.60;37.80
67196;DHT22;54122;53.538;49.366;2023-04-07T13:10:11;13.60;38.50
67196;DHT22;54122;53.538;49.366;2023-04-07T13:15:22;14.20;37.80
67196;DHT22;54122;53.538;49.366;2023-04-07T13:17:49;14.50;36.70
67196;DHT22;54122;53.538;49.366;2023-04-07T13:20:15;14.60;36.80
67196;DHT22;54122;53.538;49.366;2023-04-07T13:22:41;14.70;36.80
67196;DHT22;54122;53.538;49.366;2023-04-07T13:25:08;14.60;37.00
67196;DHT22;54122;53.538;49.366;2023-04-07T13:27:34;14.30;36.80
67196;DHT22;54122;53.538;49.366;2023-04-07T13:30:00;14.00;37.30
67196;DHT22;54122;53.538;49.366;2023-04-07T13:32:28;13.80;37.90
67196;DHT22;54122;53.538;49.366;2023-04-07T13:34:54;13.50;38.40
67196;DHT22;54122;53.538;49.366;2023-04-07T13:37:20;13.20;39.00
67196;DHT22;54122;53.538;49.366;2023-04-07T13:40:06;13.00;39.80
67196;DHT22;54122;53.538;49.366;2023-04-07T13:42:32;12.80;40.20
67196;DHT22;54122;53.538;49.366;2023-04-07T13:47:43;12.60;40.90
67196;DHT22;54122;53.538;49.366;2023-04-07T13:50:09;12.60;40.80
67196;DHT22;54122;53.538;49.366;2023-04-07T13:52:35;12.60;40.60
67196;DHT22;54122;53.538;49.366;2023-04-07T13:55:20;12.60;40.60
67196;DHT22;54122;53.538;49.366;2023-04-07T13:57:46;12.50;40.70
67196;DHT22;54122;53.538;49.366;2023-04-07T14:00:13;12.40;41.00
67196;DHT22;54122;53.538;49.366;2023-04-07T14:02:40;12.50;41.70
67196;DHT22;54122;53.538;49.366;2023-04-07T14:05:06;12.50;42.10
67196;DHT22;54122;53.538;49.366;2023-04-07T14:07:32;12.50;42.50
67196;DHT22;54122;53.538;49.366;2023-04-07T14:09:59;12.50;42.70
67196;DHT22;54122;53.538;49.366;2023-04-07T14:12:25;12.40;42.80
67196;DHT22;54122;53.538;49.366;2023-04-07T14:15:10;12.20;44.10
67196;DHT22;54122;53.538;49.366;2023-04-07T14:17:36;12.00;43.70
67196;DHT22;54122;53.538;49.366;2023-04-07T14:20:02;11.70;44.40
67196;DHT22;54122;53.538;49.366;2023-04-07T14:22:29;11.50;45.20
67196;DHT22;54122;53.538;49.366;2023-04-07T14:25:13;11.40;46.70
67196;DHT22;54122;53.538;49.366;2023-04-07T14:27:40;11.20;45.90
67196;DHT22;54122;53.538;49.366;2023-04-07T14:30:07;11.00;46.20
67196;DHT22;54122;53.538;49.366;2023-04-07T14:32:33;10.90;46.70
67196;DHT22;54122;53.538;49.366;2023-04-07T14:34:59;10.90;47.00
67196;DHT22;54122;53.538;49.366;2023-04-07T14:37:27;10.80;47.60
67196;DHT22;54122;53.538;49.366;2023-04-07T14:39:53;10.70;47.50
67196;DHT22;54122;53.538;49.366;2023-04-07T14:45:23;10.60;48.00
67196;DHT22;54122;53.538;49.366;2023-04-07T14:47:50;10.50;48.20
67196;DHT22;54122;53.538;49.366;2023-04-07T14:50:16;10.50;48.00
67196;DHT22;54122;53.538;49.366;2023-04-07T14:52:43;10.40;48.40
67196;DHT22;54122;53.538;49.366;2023-04-07T14:55:10;10.40;48.60
67196;DHT22;54122;53.538;49.366;2023-04-07T14:57:37;10.40;48.70
67196;DHT22;54122;53.538;49.366;2023-04-07T15:00:04;10.30;48.90
67196;DHT22;54122;53.538;49.366;2023-04-07T15:02:32;10.30;49.00
67196;DHT22;54122;53.538;49.366;2023-04-07T15:04:58;10.20;49.10
67196;DHT22;54122;53.538;49.366;2023-04-07T15:07:43;10.10;49.50
67196;DHT22;54122;53.538;49.366;2023-04-07T15:10:28;10.00;49.90
67196;DHT22;54122;53.538;49.366;2023-04-07T15:13:13;9.90;50.40
67196;DHT22;54122;53.538;49.366;2023-04-07T15:15:39;9.90;50.70
67196;DHT22;54122;53.538;49.366;2023-04-07T15:18:05;9.80;51.20
67196;DHT22;54122;53.538;49.366;2023-04-07T15:20:32;9.70;51.20
67196;DHT22;54122;53.538;49.366;2023-04-07T15:23:17;9.70;51.70
67196;DHT22;54122;53.538;49.366;2023-04-07T15:26:02;9.50;53.00
67196;DHT22;54122;53.538;49.366;2023-04-07T15:28:28;9.50;53.30
67196;DHT22;54122;53.538;49.366;2023-04-07T15:30:54;9.40;54.20
67196;DHT22;54122;53.538;49.366;2023-04-07T15:33:20;9.30;55.10
67196;DHT22;54122;53.538;49.366;2023-04-07T15:35:46;9.20;56.10
67196;DHT22;54122;53.538;49.366;2023-04-07T15:38:13;9.10;57.50
67196;DHT22;54122;53.538;49.366;2023-04-07T15:40:40;9.00;57.30
67196;DHT22;54122;53.538;49.366;2023-04-07T15:43:06;8.90;57.90
67196;DHT22;54122;53.538;49.366;2023-04-07T15:45:39;8.90;58.80
67196;DHT22;54122;53.538;49.366;2023-04-07T15:48:05;8.90;58.70
67196;DHT22;54122;53.538;49.366;2023-04-07T15:50:31;8.70;59.20
67196;DHT22;54122;53.538;49.366;2023-04-07T15:52:59;8.70;59.30
67196;DHT22;54122;53.538;49.366;2023-04-07T15:55:30;8.60;59.70
67196;DHT22;54122;53.538;49.366;2023-04-07T15:58:15;8.50;60.00
67196;DHT22;54122;53.538;49.366;2023-04-07T16:03:26;8.30;60.60
67196;DHT22;54122;53.538;49.366;2023-04-07T16:05:53;8.30;61.20
67196;DHT22;54122;53.538;49.366;2023-04-07T16:08:20;8.20;61.20
67196;DHT22;54122;53.538;49.366;2023-04-07T16:10:46;8.10;61.30
67196;DHT22;54122;53.538;49.366;2023-04-07T16:13:13;8.00;61.70
67196;DHT22;54122;53.538;49.366;2023-04-07T16:15:39;7.90;62.10
67196;DHT22;54122;53.538;49.366;2023-04-07T16:18:23;7.80;62.70
67196;DHT22;54122;53.538;49.366;2023-04-07T16:20:50;7.80;63.70
67196;DHT22;54122;53.538;49.366;2023-04-07T16:23:16;7.80;63.70
67196;DHT22;54122;53.538;49.366;2023-04-07T16:28:27;7.90;64.20
67196;DHT22;54122;53.538;49.366;2023-04-07T16:31:16;7.90;64.20
67196;DHT22;54122;53.538;49.366;2023-04-07T16:33:45;7.90;64.10
67196;DHT22;54122;53.538;49.366;2023-04-07T16:41:42;7.70;64.90
67196;DHT22;54122;53.538;49.366;2023-04-07T16:44:27;7.60;65.20
67196;DHT22;54122;53.538;49.366;2023-04-07T16:46:54;7.50;65.50
67196;DHT22;54122;53.538;49.366;2023-04-07T16:52:25;7.40;66.20
67196;DHT22;54122;53.538;49.366;2023-04-07T16:54:52;7.40;66.20
67196;DHT22;54122;53.538;49.366;2023-04-07T16:57:18;7.30;66.80
67196;DHT22;54122;53.538;49.366;2023-04-07T16:59:44;7.20;67.20
67196;DHT22;54122;53.538;49.366;2023-04-07T17:02:12;7.20;67.30
67196;DHT22;54122;53.538;49.366;2023-04-07T17:04:41;7.10;67.20
67196;DHT22;54122;53.538;49.366;2023-04-07T17:07:08;7.10;67.50
67196;DHT22;54122;53.538;49.366;2023-04-07T17:09:35;7.00;67.80
67196;DHT22;54122;53.538;49.366;2023-04-07T17:12:01;7.00;68.20
67196;DHT22;54122;53.538;49.366;2023-04-07T17:14:28;7.10;68.20
67196;DHT22;54122;53.538;49.366;2023-04-07T17:17:13;7.10;68.50
67196;DHT22;54122;53.538;49.366;2023-04-07T17:19:41;7.00;67.90
67196;DHT22;54122;53.538;49.366;2023-04-07T17:22:44;6.90;68.10
67196;DHT22;54122;53.538;49.366;2023-04-07T17:25:11;6.90;68.00
67196;DHT22;54122;53.538;49.366;2023-04-07T17:27:56;7.00;68.10
67196;DHT22;54122;53.538;49.366;2023-04-07T17:33:25;7.20;67.70
67196;DHT22;54122;53.538;49.366;2023-04-07T17:36:10;7.20;67.20
67196;DHT22;54122;53.538;49.366;2023-04-07T17:38:55;7.30;67.30
67196;DHT22;54122;53.538;49.366;2023-04-07T17:41:22;7.30;67.30